Time;durP1;ratioP1;P1;durP2;ratioP2;P2;SDS_P1;SDS_P2;PMS_P1;PMS_P2;Temp;Humidity;BMP_temperature;BMP_pressure;BME280_temperature;BME280_humidity;BME280_pressure;Samples;Min_cycle;Max_cycle;Signal;HPM_P1;HPM_P2
2023/03/29 00:00:58;;;;;;;14.23;6.10;;;;;;;;;;5031927;28;20489;-67
2023/03/29 00:03:25;;;;;;;15.77;6.20;;;;;;;;;;5032027;28;20037;-64
2023/03/29 00:05:56;;;;;;;9.48;4.03;;;;;;;;;;5027909;28;20461;-64
2023/03/29 00:08:24;;;;;;;15.05;5.18;;;;;;;;;;5033407;28;20025;-62
2023/03/29 00:10:50;;;;;;;12.88;4.03;;;;;;;;;;5035720;28;20056;-64
2023/03/29 00:13:16;;;;;;;10.48;4.63;;;;;;;;;;5035539;28;20057;-62
2023/03/29 00:15:42;;;;;;;15.00;5.50;;;;;;;;;;5035653;28;20104;-61
2023/03/29 00:18:08;;;;;;;11.32;5.32;;;;;;;;;;5035810;28;20412;-68
2023/03/29 00:20:33;;;;;;;12.07;5.25;;;;;;;;;;5035919;28;20104;-71
2023/03/29 00:22:58;;;;;;;15.63;6.25;;;;;;;;;;5035750;28;20053;-68
2023/03/29 00:25:24;;;;;;;13.48;4.95;;;;;;;;;;5035842;28;20017;-66
2023/03/29 00:27:49;;;;;;;11.63;4.82;;;;;;;;;;5035459;28;20021;-74
2023/03/29 00:30:15;;;;;;;11.70;5.43;;;;;;;;;;5035922;28;20022;-76
2023/03/29 00:32:41;;;;;;;9.50;4.07;;;;;;;;;;5035490;28;20030;-77
2023/03/29 00:35:07;;;;;;;9.60;4.50;;;;;;;;;;5035522;28;20422;-72
2023/03/29 00:37:33;;;;;;;10.55;4.43;;;;;;;;;;5035727;28;20091;-77
2023/03/29 00:39:59;;;;;;;10.02;4.50;;;;;;;;;;5035492;28;20443;-78
2023/03/29 00:42:25;;;;;;;9.27;4.38;;;;;;;;;;5035195;28;20022;-76
2023/03/29 00:45:22;;;;;;;8.35;3.88;;;;;;;;;;5035439;28;20168;-76
2023/03/29 00:47:51;;;;;;;9.63;3.90;;;;;;;;;;5019197;28;20034;-68
2023/03/29 00:50:28;;;;;;;8.38;3.65;;;;;;;;;;5035199;28;20360;-71
2023/03/29 00:52:56;;;;;;;11.25;3.80;;;;;;;;;;5035333;28;20370;-73
2023/03/29 00:55:24;;;;;;;5.65;2.60;;;;;;;;;;5035398;28;20048;-74
2023/03/29 00:57:54;;;;;;;9.32;3.70;;;;;;;;;;5034960;28;20071;-77
2023/03/29 01:00:23;;;;;;;10.98;3.47;;;;;;;;;;5034929;28;20034;-73
2023/03/29 01:02:53;;;;;;;7.53;3.22;;;;;;;;;;5035225;28;20386;-69
2023/03/29 01:05:28;;;;;;;8.73;3.65;;;;;;;;;;5035131;28;20493;-77
2023/03/29 01:08:10;;;;;;;8.50;3.72;;;;;;;;;;5034897;28;20129;-65
2023/03/29 01:10:55;;;;;;;8.30;2.95;;;;;;;;;;5017252;28;20458;-67
2023/03/29 01:13:38;;;;;;;8.15;3.38;;;;;;;;;;5035023;28;20041;-72
2023/03/29 01:16:05;;;;;;;8.23;3.85;;;;;;;;;;5035047;28;20463;-70
2023/03/29 01:18:32;;;;;;;7.10;3.15;;;;;;;;;;5034820;28;20037;-67
2023/03/29 01:21:09;;;;;;;5.63;2.55;;;;;;;;;;5033551;28;20461;-73
2023/03/29 01:23:44;;;;;;;7.13;3.38;;;;;;;;;;5034831;28;20112;-66
2023/03/29 01:27:01;;;;;;;10.30;3.90;;;;;;;;;;5034597;28;20032;-73
2023/03/29 01:29:32;;;;;;;12.10;3.75;;;;;;;;;;4993061;28;20495;-74
2023/03/29 01:32:09;;;;;;;6.60;2.95;;;;;;;;;;4993057;28;20046;-75
2023/03/29 01:34:50;;;;;;;10.45;4.22;;;;;;;;;;4992949;28;20148;-77
2023/03/29 01:37:28;;;;;;;9.52;4.20;;;;;;;;;;4993212;28;20046;-75
2023/03/29 01:39:54;;;;;;;13.25;4.13;;;;;;;;;;4992597;28;20446;-73
2023/03/29 01:42:43;;;;;;;8.25;3.53;;;;;;;;;;4992918;28;20038;-69
2023/03/29 01:45:32;;;;;;;7.85;3.55;;;;;;;;;;4992853;28;20043;-75
2023/03/29 01:48:00;;;;;;;12.23;5.22;;;;;;;;;;4992801;28;20035;-67
2023/03/29 01:50:38;;;;;;;8.40;3.53;;;;;;;;;;4992586;28;20108;-75
2023/03/29 01:53:47;;;;;;;7.38;2.97;;;;;;;;;;4992586;28;20034;-77
2023/03/29 01:56:18;;;;;;;13.82;4.43;;;;;;;;;;4934710;29;20391;-77
2023/03/29 01:58:45;;;;;;;;;;;;;;;;;;4935133;29;20126;-78
2023/03/29 02:01:16;;;;;;;8.52;4.22;;;;;;;;;;4934586;29;19918;-77
2023/03/29 02:03:48;;;;;;;10.48;4.80;;;;;;;;;;4934648;29;20039;-78
2023/03/29 02:06:17;;;;;;;7.32;3.65;;;;;;;;;;4934657;29;20174;-77
2023/03/29 02:08:44;;;;;;;12.15;4.25;;;;;;;;;;4934354;29;20110;-65
2023/03/29 02:11:10;;;;;;;9.07;3.95;;;;;;;;;;4934587;29;20055;-73
2023/03/29 02:13:35;;;;;;;11.35;4.70;;;;;;;;;;4934497;29;20434;-72
2023/03/29 02:16:12;;;;;;;7.00;3.65;;;;;;;;;;4934419;29;20032;-74
2023/03/29 02:18:40;;;;;;;9.10;4.38;;;;;;;;;;4934458;29;20044;-74
2023/03/29 02:21:06;;;;;;;8.32;4.05;;;;;;;;;;4934361;29;20037;-77
2023/03/29 02:23:44;;;;;;;9.70;3.88;;;;;;;;;;4934234;29;20034;-78
2023/03/29 02:26:09;;;;;;;10.80;4.18;;;;;;;;;;4934350;29;20119;-78
2023/03/29 02:28:36;;;;;;;9.18;4.15;;;;;;;;;;4934304;29;20532;-78
2023/03/29 02:31:11;;;;;;;15.95;4.88;;;;;;;;;;4948746;28;20411;-70
2023/03/29 02:34:06;;;;;;;11.75;4.43;;;;;;;;;;5013819;28;20026;-75
2023/03/29 02:36:42;;;;;;;13.57;4.68;;;;;;;;;;5013616;28;20471;-77
2023/03/29 02:39:12;;;;;;;10.60;4.40;;;;;;;;;;5013369;28;20048;-77
2023/03/29 02:41:41;;;;;;;16.52;5.15;;;;;;;;;;5013791;28;20388;-78
2023/03/29 02:44:12;;;;;;;11.13;4.10;;;;;;;;;;5013366;28;20037;-76
2023/03/29 02:46:37;;;;;;;8.93;4.50;;;;;;;;;;5013501;28;20029;-78
2023/03/29 02:49:04;;;;;;;8.65;4.28;;;;;;;;;;5013362;28;20331;-78
2023/03/29 02:51:34;;;;;;;5.95;3.05;;;;;;;;;;5012933;28;20128;-77
2023/03/29 02:54:12;;;;;;;6.75;3.58;;;;;;;;;;5013548;28;20049;-76
2023/03/29 02:56:46;;;;;;;10.25;3.88;;;;;;;;;;5013353;28;20030;-74
2023/03/29 02:59:13;;;;;;;11.00;5.28;;;;;;;;;;5013278;28;20479;-78
2023/03/29 03:01:41;;;;;;;12.38;3.92;;;;;;;;;;5013296;28;20030;-77
2023/03/29 03:04:08;;;;;;;6.60;3.33;;;;;;;;;;5013437;28;20033;-74
2023/03/29 03:06:35;;;;;;;9.25;3.90;;;;;;;;;;5012916;28;20083;-69
2023/03/29 03:09:01;;;;;;;7.63;3.45;;;;;;;;;;5013155;28;20034;-76
2023/03/29 03:11:26;;;;;;;4.50;2.75;;;;;;;;;;5013022;28;20100;-75
2023/03/29 03:13:52;;;;;;;8.50;4.28;;;;;;;;;;5013196;28;20376;-66
2023/03/29 03:16:17;;;;;;;6.40;3.38;;;;;;;;;;5013127;28;20026;-74
2023/03/29 03:18:44;;;;;;;11.20;3.85;;;;;;;;;;5013241;28;20036;-76
2023/03/29 03:21:10;;;;;;;7.25;3.70;;;;;;;;;;5012807;28;20080;-77
2023/03/29 03:23:36;;;;;;;6.90;3.55;;;;;;;;;;5012915;28;20511;-67
2023/03/29 03:26:01;;;;;;;7.22;3.78;;;;;;;;;;5013021;28;20105;-71
2023/03/29 03:28:27;;;;;;;8.30;3.85;;;;;;;;;;5012731;28;20030;-63
2023/03/29 03:30:53;;;;;;;9.73;4.10;;;;;;;;;;5012851;28;20034;-68
2023/03/29 03:33:18;;;;;;;9.45;3.95;;;;;;;;;;5026759;28;20331;-66
2023/03/29 03:35:47;;;;;;;8.50;4.20;;;;;;;;;;5052308;28;20024;-66
2023/03/29 03:38:12;;;;;;;8.75;3.72;;;;;;;;;;5052668;28;20366;-73
2023/03/29 03:40:38;;;;;;;9.02;3.88;;;;;;;;;;5052538;28;20142;-77
2023/03/29 03:43:03;;;;;;;6.75;3.35;;;;;;;;;;5053538;28;20482;-76
2023/03/29 03:45:30;;;;;;;9.25;3.97;;;;;;;;;;5056762;28;20048;-73
2023/03/29 03:47:55;;;;;;;7.95;3.67;;;;;;;;;;5056595;28;20490;-77
2023/03/29 03:50:21;;;;;;;9.23;4.05;;;;;;;;;;5056151;28;20029;-77
2023/03/29 03:52:47;;;;;;;7.43;3.55;;;;;;;;;;5056571;28;20029;-78
2023/03/29 03:55:13;;;;;;;9.98;4.03;;;;;;;;;;5056439;28;20032;-75
2023/03/29 03:57:38;;;;;;;10.68;3.97;;;;;;;;;;5056159;28;20436;-74
2023/03/29 04:00:17;;;;;;;7.80;3.75;;;;;;;;;;5056397;28;20501;-68
2023/03/29 04:02:44;;;;;;;8.60;4.15;;;;;;;;;;5056455;28;20320;-75
2023/03/29 04:05:10;;;;;;;14.48;4.43;;;;;;;;;;5056098;28;20025;-77
2023/03/29 04:07:35;;;;;;;10.10;4.40;;;;;;;;;;5056198;28;20025;-67
2023/03/29 04:10:00;;;;;;;9.30;4.45;;;;;;;;;;5038201;28;20053;-73
2023/03/29 04:12:26;;;;;;;12.88;4.95;;;;;;;;;;5055843;28;20021;-75
2023/03/29 04:14:51;;;;;;;9.95;4.30;;;;;;;;;;5055855;28;20485;-77
2023/03/29 04:17:17;;;;;;;8.95;4.22;;;;;;;;;;5056085;28;20066;-78
2023/03/29 04:19:42;;;;;;;8.10;4.28;;;;;;;;;;5055616;28;20542;-77
2023/03/29 04:22:08;;;;;;;8.90;4.35;;;;;;;;;;5055521;28;20032;-74
2023/03/29 04:24:33;;;;;;;7.03;4.18;;;;;;;;;;5055655;28;20036;-77
2023/03/29 04:26:59;;;;;;;10.82;4.68;;;;;;;;;;5055733;28;20045;-75
2023/03/29 04:29:24;;;;;;;8.82;2.85;;;;;;;;;;5055631;28;20032;-77
2023/03/29 04:31:50;;;;;;;6.80;3.63;;;;;;;;;;5055272;28;20021;-77
2023/03/29 04:34:15;;;;;;;8.43;3.72;;;;;;;;;;5019369;28;20034;-78
2023/03/29 04:36:42;;;;;;;9.50;4.03;;;;;;;;;;5015845;28;20083;-77
2023/03/29 04:39:08;;;;;;;7.30;4.07;;;;;;;;;;5015877;28;20083;-77
2023/03/29 04:41:34;;;;;;;8.80;3.80;;;;;;;;;;5015442;28;20469;-78
2023/03/29 04:44:02;;;;;;;7.47;3.70;;;;;;;;;;5015755;28;20026;-74
2023/03/29 04:46:28;;;;;;;9.48;4.00;;;;;;;;;;5015641;28;20041;-78
2023/03/29 04:48:53;;;;;;;8.77;3.72;;;;;;;;;;5015506;28;20026;-76
2023/03/29 04:51:21;;;;;;;6.88;3.30;;;;;;;;;;5015344;28;20065;-68
2023/03/29 04:53:49;;;;;;;8.23;3.10;;;;;;;;;;5015294;28;20026;-73
2023/03/29 04:56:15;;;;;;;8.00;3.80;;;;;;;;;;5015449;28;20080;-65
2023/03/29 04:58:41;;;;;;;8.82;3.95;;;;;;;;;;5015460;28;20026;-71
2023/03/29 05:01:06;;;;;;;7.97;3.78;;;;;;;;;;5015382;28;20026;-78
2023/03/29 05:03:31;;;;;;;13.93;4.60;;;;;;;;;;5015353;28;20076;-74
2023/03/29 05:06:09;;;;;;;9.45;4.30;;;;;;;;;;5015373;28;20084;-69
2023/03/29 05:08:39;;;;;;;12.98;4.57;;;;;;;;;;5015152;28;20026;-78
2023/03/29 05:11:06;;;;;;;9.60;4.90;;;;;;;;;;5015152;28;20092;-77
2023/03/29 05:13:32;;;;;;;12.20;4.78;;;;;;;;;;5027395;28;20084;-77
2023/03/29 05:16:00;;;;;;;9.45;4.30;;;;;;;;;;5034872;28;20116;-76
2023/03/29 05:18:26;;;;;;;12.48;5.13;;;;;;;;;;5034556;28;20455;-77
2023/03/29 05:20:53;;;;;;;10.07;4.95;;;;;;;;;;5034898;28;20047;-73
2023/03/29 05:23:19;;;;;;;16.83;5.03;;;;;;;;;;5034783;28;20395;-73
2023/03/29 05:25:47;;;;;;;9.48;4.05;;;;;;;;;;5034743;28;20467;-67
2023/03/29 05:28:13;;;;;;;12.88;4.50;;;;;;;;;;5034498;28;20025;-75
2023/03/29 05:30:39;;;;;;;13.63;4.68;;;;;;;;;;5034454;28;20143;-67
2023/03/29 05:33:05;;;;;;;4.00;2.67;;;;;;;;;;5029081;28;20030;-70
2023/03/29 05:35:30;;;;;;;16.05;4.65;;;;;;;;;;5015166;28;20033;-71
2023/03/29 05:37:57;;;;;;;12.65;4.13;;;;;;;;;;5014712;28;20383;-73
2023/03/29 05:40:24;;;;;;;6.97;2.78;;;;;;;;;;5014284;28;20107;-68
2023/03/29 05:42:51;;;;;;;8.23;4.13;;;;;;;;;;5014715;28;20026;-62
2023/03/29 05:45:16;;;;;;;4.55;2.25;;;;;;;;;;5014515;28;20056;-71
2023/03/29 05:47:42;;;;;;;10.48;3.75;;;;;;;;;;5014397;28;20030;-69
2023/03/29 05:50:09;;;;;;;5.80;3.25;;;;;;;;;;5014368;28;20026;-74
2023/03/29 05:52:35;;;;;;;9.65;3.33;;;;;;;;;;5014335;28;20142;-73
2023/03/29 05:55:03;;;;;;;16.42;5.32;;;;;;;;;;5014264;28;20490;-71
2023/03/29 05:57:28;;;;;;;12.15;4.57;;;;;;;;;;5014248;28;20041;-73
2023/03/29 05:59:55;;;;;;;9.15;4.38;;;;;;;;;;5014294;28;20154;-67
2023/03/29 06:02:21;;;;;;;8.32;3.83;;;;;;;;;;5014340;28;20026;-71
2023/03/29 06:04:47;;;;;;;9.30;4.20;;;;;;;;;;5014344;28;20124;-71
2023/03/29 06:07:13;;;;;;;9.68;3.22;;;;;;;;;;5013445;28;20038;-71
2023/03/29 06:09:39;;;;;;;18.33;6.10;;;;;;;;;;5013622;28;20033;-73
2023/03/29 06:12:06;;;;;;;11.95;6.30;;;;;;;;;;5014191;28;20030;-74
2023/03/29 06:14:32;;;;;;;11.57;5.82;;;;;;;;;;5013943;28;20034;-72
2023/03/29 06:16:58;;;;;;;12.63;5.55;;;;;;;;;;5014111;28;20036;-76
2023/03/29 06:19:23;;;;;;;14.48;5.97;;;;;;;;;;5014030;28;20357;-78
2023/03/29 06:21:51;;;;;;;14.88;6.10;;;;;;;;;;5013932;28;20030;-77
2023/03/29 06:24:17;;;;;;;16.88;6.15;;;;;;;;;;5013916;28;20415;-66
2023/03/29 06:26:42;;;;;;;11.30;4.40;;;;;;;;;;5013919;28;20042;-77
2023/03/29 06:29:09;;;;;;;11.70;5.35;;;;;;;;;;5013225;28;20510;-68
2023/03/29 06:31:34;;;;;;;15.52;4.93;;;;;;;;;;5013498;28;20024;-68
2023/03/29 06:34:01;;;;;;;11.02;4.85;;;;;;;;;;5013451;28;20029;-74
2023/03/29 06:36:26;;;;;;;13.80;4.50;;;;;;;;;;5013643;28;20030;-77
2023/03/29 06:38:52;;;;;;;21.27;5.13;;;;;;;;;;5013407;28;20029;-77
2023/03/29 06:41:18;;;;;;;6.22;2.13;;;;;;;;;;5013376;28;20113;-77
2023/03/29 06:43:44;;;;;;;11.23;3.83;;;;;;;;;;5013413;28;20062;-77
2023/03/29 06:46:10;;;;;;;10.82;3.63;;;;;;;;;;4995867;28;20026;-77
2023/03/29 06:48:40;;;;;;;13.15;4.53;;;;;;;;;;5013226;28;20073;-74
2023/03/29 06:51:06;;;;;;;13.70;4.32;;;;;;;;;;5011774;28;20050;-76
2023/03/29 06:53:32;;;;;;;11.00;3.78;;;;;;;;;;5013419;28;20026;-76
2023/03/29 06:55:58;;;;;;;5.90;3.03;;;;;;;;;;5013396;28;20029;-77
2023/03/29 06:58:24;;;;;;;9.10;3.55;;;;;;;;;;5013019;28;20071;-77
2023/03/29 07:00:50;;;;;;;9.30;3.70;;;;;;;;;;5016810;28;20100;-73
2023/03/29 07:03:19;;;;;;;5.82;3.47;;;;;;;;;;5032923;28;20022;-76
2023/03/29 07:05:46;;;;;;;10.63;4.15;;;;;;;;;;5028041;28;20104;-77
2023/03/29 07:08:14;;;;;;;7.68;4.07;;;;;;;;;;5032781;28;20013;-75
2023/03/29 07:10:46;;;;;;;9.27;3.88;;;;;;;;;;5034312;28;20038;-71
2023/03/29 07:13:12;;;;;;;11.05;3.75;;;;;;;;;;5031287;28;20033;-72
2023/03/29 07:15:38;;;;;;;8.32;3.53;;;;;;;;;;5026061;28;20025;-71
2023/03/29 07:18:04;;;;;;;9.85;3.25;;;;;;;;;;5029486;28;20029;-75
2023/03/29 07:20:30;;;;;;;15.93;3.65;;;;;;;;;;5031792;28;20044;-70
2023/03/29 07:22:56;;;;;;;14.70;4.07;;;;;;;;;;5029157;28;20104;-68
2023/03/29 07:25:23;;;;;;;6.82;3.20;;;;;;;;;;5026769;28;20052;-73
2023/03/29 07:27:50;;;;;;;6.35;2.72;;;;;;;;;;5032076;28;20034;-77
2023/03/29 07:30:26;;;;;;;6.47;3.75;;;;;;;;;;5032065;28;20029;-77
2023/03/29 07:32:52;;;;;;;12.18;3.22;;;;;;;;;;5035176;28;20056;-78
2023/03/29 07:35:18;;;;;;;8.52;3.35;;;;;;;;;;5052080;28;20036;-76
2023/03/29 07:37:45;;;;;;;6.32;3.03;;;;;;;;;;5051870;28;20025;-63
2023/03/29 07:40:22;;;;;;;7.63;3.33;;;;;;;;;;5051913;28;20120;-77
2023/03/29 07:42:52;;;;;;;8.80;3.03;;;;;;;;;;5038793;28;20037;-74
2023/03/29 07:45:19;;;;;;;6.20;2.72;;;;;;;;;;5014377;28;20430;-74
2023/03/29 07:47:52;;;;;;;7.53;2.92;;;;;;;;;;5031742;28;20037;-67
2023/03/29 07:50:17;;;;;;;10.52;3.58;;;;;;;;;;5031664;28;20120;-63
2023/03/29 07:52:43;;;;;;;6.70;2.97;;;;;;;;;;5032178;28;20057;-67
2023/03/29 07:55:10;;;;;;;6.75;4.13;;;;;;;;;;5031943;28;20084;-62
2023/03/29 07:57:36;;;;;;;14.48;3.47;;;;;;;;;;5031861;28;20021;-75
2023/03/29 08:02:53;;;;;;;8.70;2.85;;;;;;;;;;5027136;28;20123;-69
2023/03/29 08:05:21;;;;;;;8.68;4.57;;;;;;;;;;5031864;28;20057;-68
2023/03/29 08:07:48;;;;;;;6.72;2.88;;;;;;;;;;5031622;28;20029;-77
2023/03/29 08:10:18;;;;;;;10.73;2.90;;;;;;;;;;5013892;28;20030;-70
2023/03/29 08:12:46;;;;;;;8.30;3.30;;;;;;;;;;5031690;28;20112;-70
2023/03/29 08:15:12;;;;;;;9.02;3.35;;;;;;;;;;5027609;28;20033;-66
2023/03/29 08:17:37;;;;;;;8.80;3.60;;;;;;;;;;5011945;28;20129;-66
2023/03/29 08:20:05;;;;;;;7.18;2.55;;;;;;;;;;5030934;28;20033;-72
2023/03/29 08:22:32;;;;;;;8.13;3.20;;;;;;;;;;5031788;28;20089;-69
2023/03/29 08:24:57;;;;;;;7.55;3.25;;;;;;;;;;5031431;28;20033;-74
2023/03/29 08:27:23;;;;;;;8.55;2.90;;;;;;;;;;5031406;28;20060;-73
2023/03/29 08:29:49;;;;;;;13.50;3.50;;;;;;;;;;5033741;28;20052;-68
2023/03/29 08:32:14;;;;;;;9.65;3.40;;;;;;;;;;5035290;28;20048;-69
2023/03/29 08:34:40;;;;;;;10.13;3.08;;;;;;;;;;5053310;28;20418;-65
2023/03/29 08:37:05;;;;;;;7.55;2.97;;;;;;;;;;5055284;28;20025;-75
2023/03/29 08:39:31;;;;;;;6.15;2.60;;;;;;;;;;5055091;28;20482;-66
2023/03/29 08:42:05;;;;;;;7.65;3.05;;;;;;;;;;5055178;28;20017;-74
2023/03/29 08:44:48;;;;;;;6.60;2.53;;;;;;;;;;5055159;28;20033;-66
2023/03/29 08:47:43;;;;;;;11.38;3.13;;;;;;;;;;5055006;28;20080;-68
2023/03/29 08:50:11;;;;;;;7.15;2.78;;;;;;;;;;5055066;28;20064;-71
2023/03/29 08:52:52;;;;;;;6.93;3.15;;;;;;;;;;5054981;28;20052;-72
2023/03/29 08:55:40;;;;;;;7.90;2.70;;;;;;;;;;5054713;28;20025;-67
2023/03/29 08:58:13;;;;;;;12.10;3.15;;;;;;;;;;5055010;28;20112;-77
2023/03/29 09:00:42;;;;;;;5.90;2.67;;;;;;;;;;5036991;28;20154;-77
2023/03/29 09:03:27;;;;;;;6.57;2.78;;;;;;;;;;5039597;28;20069;-76
2023/03/29 09:05:58;;;;;;;9.32;3.00;;;;;;;;;;5028954;28;20053;-77
2023/03/29 09:08:24;;;;;;;6.97;2.80;;;;;;;;;;5027139;28;20682;-77
2023/03/29 09:11:07;;;;;;;8.88;2.78;;;;;;;;;;5030312;28;20375;-77
2023/03/29 09:13:56;;;;;;;7.53;2.83;;;;;;;;;;5029187;28;20371;-75
2023/03/29 09:16:45;;;;;;;9.85;3.10;;;;;;;;;;5031255;28;20040;-77
2023/03/29 09:19:28;;;;;;;7.22;3.15;;;;;;;;;;5034406;28;20032;-69
2023/03/29 09:22:06;;;;;;;9.40;2.80;;;;;;;;;;5034336;28;20026;-73
2023/03/29 09:25:10;;;;;;;8.63;2.70;;;;;;;;;;5034231;28;20025;-68
2023/03/29 09:27:47;;;;;;;13.02;3.42;;;;;;;;;;4953477;29;20543;-74
2023/03/29 09:30:17;;;;;;;6.93;2.80;;;;;;;;;;4954123;29;20484;-75
2023/03/29 09:32:51;;;;;;;7.03;2.90;;;;;;;;;;4956016;28;20027;-77
2023/03/29 09:35:34;;;;;;;18.30;3.53;;;;;;;;;;4973302;28;20049;-77
2023/03/29 09:38:00;;;;;;;7.05;3.08;;;;;;;;;;4973088;28;20038;-64
2023/03/29 09:40:33;;;;;;;9.43;2.97;;;;;;;;;;4972377;28;20026;-73
2023/03/29 09:43:03;;;;;;;9.98;2.70;;;;;;;;;;4973064;28;20043;-72
2023/03/29 09:45:29;;;;;;;9.25;2.53;;;;;;;;;;4972832;28;20451;-68
2023/03/29 09:47:58;;;;;;;6.20;2.80;;;;;;;;;;4972706;28;20049;-67
2023/03/29 09:50:35;;;;;;;6.18;2.55;;;;;;;;;;4972596;28;20031;-63
2023/03/29 09:53:01;;;;;;;11.45;2.80;;;;;;;;;;4972777;28;20023;-76
2023/03/29 09:55:32;;;;;;;7.45;2.92;;;;;;;;;;4972707;28;20218;-72
2023/03/29 09:58:00;;;;;;;12.18;2.95;;;;;;;;;;4972668;28;20409;-65
2023/03/29 10:00:26;;;;;;;11.48;3.58;;;;;;;;;;4974875;28;20411;-66
2023/03/29 10:02:55;;;;;;;8.90;3.72;;;;;;;;;;5033561;28;20021;-75
2023/03/29 10:05:24;;;;;;;9.52;2.95;;;;;;;;;;5033306;28;20025;-73
2023/03/29 10:07:58;;;;;;;13.45;3.78;;;;;;;;;;5032942;28;20030;-77
2023/03/29 10:10:32;;;;;;;9.68;3.45;;;;;;;;;;5033364;28;20029;-74
2023/03/29 10:13:05;;;;;;;8.07;3.47;;;;;;;;;;5033263;28;20034;-75
2023/03/29 10:15:31;;;;;;;15.30;3.78;;;;;;;;;;5033194;28;20044;-76
2023/03/29 10:18:02;;;;;;;6.55;2.47;;;;;;;;;;5022377;28;20057;-69
2023/03/29 10:20:28;;;;;;;8.05;2.83;;;;;;;;;;5015446;28;20034;-74
2023/03/29 10:22:57;;;;;;;7.45;2.45;;;;;;;;;;5013103;28;20509;-73
2023/03/29 10:25:30;;;;;;;7.78;3.03;;;;;;;;;;5013274;28;20562;-64
2023/03/29 10:28:16;;;;;;;12.02;3.60;;;;;;;;;;5013008;28;20503;-70
2023/03/29 10:30:43;;;;;;;6.93;2.70;;;;;;;;;;5012999;28;20431;-65
2023/03/29 10:33:17;;;;;;;7.30;2.75;;;;;;;;;;5012994;28;20141;-68
2023/03/29 10:35:43;;;;;;;8.82;2.70;;;;;;;;;;5012778;28;20376;-66
2023/03/29 10:38:13;;;;;;;9.00;2.67;;;;;;;;;;5011887;28;20061;-63
2023/03/29 10:40:47;;;;;;;7.35;2.97;;;;;;;;;;5013033;28;20543;-68
2023/03/29 10:43:26;;;;;;;5.28;2.45;;;;;;;;;;5013296;28;20030;-63
2023/03/29 10:45:55;;;;;;;6.65;2.50;;;;;;;;;;5013007;28;20030;-65
2023/03/29 10:48:28;;;;;;;9.55;3.00;;;;;;;;;;5012886;28;20026;-64
2023/03/29 10:50:57;;;;;;;7.72;2.83;;;;;;;;;;5018342;28;20042;-68
2023/03/29 10:53:27;;;;;;;6.55;2.60;;;;;;;;;;5032348;28;20475;-72
2023/03/29 10:56:01;;;;;;;13.32;3.03;;;;;;;;;;5032669;28;20034;-71
2023/03/29 10:58:56;;;;;;;9.02;2.58;;;;;;;;;;5032466;28;20037;-68
2023/03/29 11:01:31;;;;;;;9.05;3.17;;;;;;;;;;4952155;28;20118;-66
2023/03/29 11:04:21;;;;;;;7.47;2.50;;;;;;;;;;4952250;28;20046;-64
2023/03/29 11:07:09;;;;;;;5.03;2.50;;;;;;;;;;4951681;28;20035;-63
2023/03/29 11:10:02;;;;;;;7.75;2.70;;;;;;;;;;4954804;28;20027;-73
2023/03/29 11:12:46;;;;;;;11.68;3.03;;;;;;;;;;4951607;28;20047;-66
2023/03/29 11:15:45;;;;;;;9.23;3.22;;;;;;;;;;4951985;28;20179;-72
2023/03/29 11:18:38;;;;;;;8.95;3.00;;;;;;;;;;4951902;28;20039;-71
2023/03/29 11:21:15;;;;;;;7.22;2.63;;;;;;;;;;4962522;28;20027;-63
2023/03/29 11:23:52;;;;;;;7.80;3.00;;;;;;;;;;4955047;28;20035;-78
2023/03/29 11:26:31;;;;;;;13.55;3.10;;;;;;;;;;4952073;28;20073;-75
2023/03/29 11:29:20;;;;;;;11.48;2.90;;;;;;;;;;4951953;29;20034;-78
2023/03/29 11:32:23;;;;;;;4.88;2.72;;;;;;;;;;4957498;28;20147;-75
2023/03/29 11:35:01;;;;;;;10.82;3.42;;;;;;;;;;4970731;28;20045;-78
2023/03/29 11:38:00;;;;;;;8.18;2.88;;;;;;;;;;4977383;28;20045;-78
2023/03/29 11:40:35;;;;;;;8.63;3.30;;;;;;;;;;5011270;28;20092;-77
2023/03/29 11:43:05;;;;;;;6.95;2.80;;;;;;;;;;5010534;28;20068;-77
2023/03/29 11:45:43;;;;;;;5.75;2.50;;;;;;;;;;5010882;28;20056;-78
2023/03/29 11:48:17;;;;;;;6.50;2.60;;;;;;;;;;5010962;28;20022;-77
2023/03/29 11:50:49;;;;;;;6.20;3.08;;;;;;;;;;5011416;28;20136;-78
2023/03/29 11:53:24;;;;;;;8.35;2.95;;;;;;;;;;5011903;28;20026;-77
2023/03/29 11:55:51;;;;;;;10.23;3.28;;;;;;;;;;5012161;28;20479;-78
2023/03/29 11:58:24;;;;;;;6.28;2.70;;;;;;;;;;5010945;28;20033;-76
2023/03/29 12:00:54;;;;;;;6.80;3.20;;;;;;;;;;5012228;28;20038;-71
2023/03/29 12:03:40;;;;;;;5.97;2.47;;;;;;;;;;5011718;28;20029;-71
2023/03/29 12:06:30;;;;;;;7.32;2.75;;;;;;;;;;5016357;28;20105;-72
2023/03/29 12:09:04;;;;;;;6.45;2.70;;;;;;;;;;5016081;28;20025;-71
2023/03/29 12:11:33;;;;;;;4.13;2.47;;;;;;;;;;5015938;28;20025;-65
2023/03/29 12:14:07;;;;;;;4.22;2.63;;;;;;;;;;5016016;28;20373;-67
2023/03/29 12:16:40;;;;;;;7.78;2.63;;;;;;;;;;5015757;28;20058;-68
2023/03/29 12:19:19;;;;;;;4.88;2.70;;;;;;;;;;5015777;28;20054;-62
2023/03/29 12:21:46;;;;;;;11.02;3.03;;;;;;;;;;5033893;28;20057;-71
2023/03/29 12:24:14;;;;;;;6.53;3.03;;;;;;;;;;5027847;28;20021;-69
2023/03/29 12:27:01;;;;;;;6.90;2.85;;;;;;;;;;5022368;28;20026;-78
2023/03/29 12:29:45;;;;;;;4.55;2.60;;;;;;;;;;5024245;28;20030;-75
2023/03/29 12:32:29;;;;;;;6.72;2.40;;;;;;;;;;5021043;28;20036;-69
2023/03/29 12:35:25;;;;;;;8.35;3.00;;;;;;;;;;5015552;28;20398;-67
2023/03/29 12:38:02;;;;;;;6.35;2.80;;;;;;;;;;5015657;28;20022;-70
2023/03/29 12:40:44;;;;;;;9.65;3.10;;;;;;;;;;5015570;28;20037;-72
2023/03/29 12:43:31;;;;;;;7.97;2.88;;;;;;;;;;5015474;28;20049;-73
2023/03/29 12:46:05;;;;;;;9.48;2.83;;;;;;;;;;5032658;28;20021;-67
2023/03/29 12:48:32;;;;;;;6.35;2.95;;;;;;;;;;5035050;28;20037;-66
2023/03/29 12:51:00;;;;;;;8.93;3.42;;;;;;;;;;5034996;28;20209;-68
2023/03/29 12:53:32;;;;;;;5.22;2.92;;;;;;;;;;5032113;28;20079;-78
2023/03/29 12:56:01;;;;;;;6.55;3.20;;;;;;;;;;5026857;28;20482;-70
2023/03/29 12:58:36;;;;;;;4.40;2.58;;;;;;;;;;5028259;28;20056;-63
2023/03/29 13:01:07;;;;;;;7.07;3.78;;;;;;;;;;5028652;28;20014;-69
2023/03/29 13:03:38;;;;;;;7.95;3.38;;;;;;;;;;5027576;28;20068;-69
2023/03/29 13:06:08;;;;;;;12.70;3.65;;;;;;;;;;5026256;28;20022;-70
2023/03/29 13:08:39;;;;;;;6.60;3.20;;;;;;;;;;5029649;28;20037;-67
2023/03/29 13:11:05;;;;;;;5.80;3.30;;;;;;;;;;5028576;28;20105;-74
2023/03/29 13:13:37;;;;;;;5.60;2.85;;;;;;;;;;5027139;28;20033;-63
2023/03/29 13:16:17;;;;;;;6.18;3.00;;;;;;;;;;5025716;28;20026;-73
2023/03/29 13:19:05;;;;;;;8.48;3.03;;;;;;;;;;5029026;28;20021;-64
2023/03/29 13:21:58;;;;;;;7.82;3.40;;;;;;;;;;5024388;28;20022;-65
2023/03/29 13:24:49;;;;;;;12.90;3.22;;;;;;;;;;5029315;28;20380;-74
2023/03/29 13:27:47;;;;;;;10.02;3.30;;;;;;;;;;5034518;28;20037;-63
2023/03/29 13:30:15;;;;;;;6.28;3.42;;;;;;;;;;5023336;28;20091;-64
2023/03/29 13:33:09;;;;;;;7.65;2.83;;;;;;;;;;5033897;28;20029;-65
2023/03/29 13:36:07;;;;;;;10.07;3.10;;;;;;;;;;5016426;28;20068;-79
2023/03/29 13:38:47;;;;;;;10.73;3.10;;;;;;;;;;5034300;28;20022;-67
2023/03/29 13:41:30;;;;;;;14.82;7.35;;;;;;;;;;5034084;28;20029;-79
2023/03/29 13:43:56;;;;;;;9.48;4.93;;;;;;;;;;5033930;28;20382;-70
2023/03/29 13:46:40;;;;;;;6.80;4.13;;;;;;;;;;5034101;28;20030;-63
2023/03/29 13:49:13;;;;;;;4.45;2.80;;;;;;;;;;5034157;28;20030;-77
2023/03/29 13:51:52;;;;;;;3.97;2.67;;;;;;;;;;5033611;28;20045;-67
2023/03/29 13:54:59;;;;;;;7.70;3.15;;;;;;;;;;5033933;28;20052;-74
2023/03/29 13:57:35;;;;;;;5.65;3.15;;;;;;;;;;5033907;28;20033;-75
2023/03/29 14:00:19;;;;;;;5.88;3.25;;;;;;;;;;5033506;28;20025;-77
2023/03/29 14:02:47;;;;;;;8.50;3.20;;;;;;;;;;5034105;28;20086;-78
2023/03/29 14:05:17;;;;;;;4.95;3.17;;;;;;;;;;5033758;28;20033;-79
2023/03/29 14:07:48;;;;;;;4.85;3.00;;;;;;;;;;5033535;28;20030;-74
2023/03/29 14:10:18;;;;;;;6.93;3.33;;;;;;;;;;5033707;28;20097;-78
2023/03/29 14:12:44;;;;;;;5.28;3.08;;;;;;;;;;5033805;28;20045;-78
2023/03/29 14:15:36;;;;;;;5.82;3.30;;;;;;;;;;5033308;28;20025;-77
2023/03/29 14:18:02;;;;;;;5.60;2.85;;;;;;;;;;5033758;28;20100;-78
2023/03/29 14:20:30;;;;;;;8.88;3.17;;;;;;;;;;5033329;28;20053;-77
2023/03/29 14:22:55;;;;;;;5.60;3.30;;;;;;;;;;5033478;28;20379;-78
2023/03/29 14:25:21;;;;;;;8.88;3.22;;;;;;;;;;5033232;28;20021;-78
2023/03/29 14:27:47;;;;;;;4.93;2.45;;;;;;;;;;5032243;28;20067;-75
2023/03/29 14:30:20;;;;;;;8.63;3.40;;;;;;;;;;5033159;28;20041;-62
2023/03/29 14:32:47;;;;;;;5.90;3.35;;;;;;;;;;5017793;28;20482;-78
2023/03/29 14:35:13;;;;;;;4.13;3.00;;;;;;;;;;5044708;28;20550;-77
2023/03/29 14:37:41;;;;;;;8.05;3.50;;;;;;;;;;5033250;28;20033;-65
2023/03/29 14:40:15;;;;;;;4.60;2.72;;;;;;;;;;5033242;28;20029;-79
2023/03/29 14:42:41;;;;;;;5.45;2.83;;;;;;;;;;5032872;28;20026;-64
2023/03/29 14:45:11;;;;;;;3.83;2.88;;;;;;;;;;5032912;28;20467;-78
2023/03/29 14:47:39;;;;;;;4.35;3.00;;;;;;;;;;5032509;28;20501;-73
2023/03/29 14:50:05;;;;;;;6.22;3.28;;;;;;;;;;5032726;28;20131;-78
2023/03/29 14:52:33;;;;;;;5.18;2.72;;;;;;;;;;5032650;28;20065;-77
2023/03/29 14:55:01;;;;;;;6.75;3.45;;;;;;;;;;5028419;28;20038;-71
2023/03/29 14:57:32;;;;;;;5.45;3.50;;;;;;;;;;5026040;28;20014;-67
2023/03/29 15:00:00;;;;;;;5.65;3.30;;;;;;;;;;5025620;28;20033;-70
2023/03/29 15:02:31;;;;;;;7.35;3.20;;;;;;;;;;5030784;28;20100;-78
2023/03/29 15:05:02;;;;;;;6.07;3.03;;;;;;;;;;5044900;28;20467;-78
2023/03/29 15:07:28;;;;;;;7.45;3.50;;;;;;;;;;5043810;28;20104;-68